Hovedside
METAR-TAF:

METAR-TAF

Lufthavner :

Ålesund, Norge

Ålesund lufthavn

breddegrad: 62-34N, lengdegrad: 006-07E, høyde over havet: 2 m

Gjeldene værobservasjon

Denne rapporten ble laget for 42 minutter siden, klokken 09:50 UTC
Vind 10 kt fra Nordøst
Temperatur 15°C
Luftfuktighet 72%
Trykk 991 hPa
Sikt 10 km eller mer
Få skyer i en høyde av 2500 ft, Tårnskyer (cumulus).
Spredte skyer i en høyde av 6600 ft

METAR: ENAL 250950Z 05010KT 9999 FEW025TCU SCT066 15/10 Q0991

Tid: 12:32 (10:32 UTC)

Varsel

Denne rapporten ble laget for 2 timer og 32 minutter siden, klokken 08:00 UTC
Varsel gyldig fra 25. klokken 09 UTC til 25. klokken 18 UTC
Vind 15 kt fra Nord-nordøst
Sikt 10 km eller mer
Få skyer i en høyde av 3000 ft
Spredte skyer i en høyde av 5000 ft

TAF: ENAL 250800Z 2509/2518 03015KT 9999 FEW030 SCT050

Værobservasjoner og værvarsel for over 4000 flyplasser (METAR- og TAF-rapporter).

Tilgjengelige stasjoner er representert av de røde og gule prikkene på kartet.

Hold musepekeren over prikken for å se navnet på stasjonen.

Klikk så for å se værobservasjoner og -varsler.

For å forandre kartet kan du klikke på den grønne knappen med svart kryss for å zoome inn, på den grønne knappen med strek for å zoome ut, eller på de grønne pilene for å se tilstøtende kart.


METAR-TAF: